Time;durP1;ratioP1;P1;durP2;ratioP2;P2;SDS_P1;SDS_P2;PMS_P1;PMS_P2;Temp;Humidity;BMP_temperature;BMP_pressure;BME280_temperature;BME280_humidity;BME280_pressure;Samples;Min_cycle;Max_cycle;Signal;HPM_P1;HPM_P2
2023/04/30 00:00:16;;;;;;;13.80;11.20;;;;;20.40;101161.00;;;;2064552;28;20211;-72
2023/04/30 00:01:16;;;;;;;12.60;10.97;;;;;20.40;101166.00;;;;2065427;28;20242;-71
2023/04/30 00:02:16;;;;;;;12.67;11.47;;;;;20.30;101162.00;;;;2070166;28;20231;-71
2023/04/30 00:03:17;;;;;;;12.80;10.80;;;;;20.30;101159.00;;;;2072601;28;20202;-71
2023/04/30 00:04:17;;;;;;;11.87;10.60;;;;;20.30;101169.00;;;;2064998;28;20281;-72
2023/04/30 00:05:17;;;;;;;11.90;10.70;;;;;20.30;101158.00;;;;2064226;28;20207;-72
2023/04/30 00:06:17;;;;;;;12.50;10.70;;;;;20.40;101159.00;;;;2067666;28;20206;-71
2023/04/30 00:07:18;;;;;;;14.63;11.13;;;;;20.30;101162.00;;;;2065242;28;20207;-71
2023/04/30 00:08:18;;;;;;;12.20;10.90;;;;;20.30;101159.00;;;;2057317;28;20242;-71
2023/04/30 00:09:18;;;;;;;11.97;10.70;;;;;20.30;101157.00;;;;2058749;28;20230;-71
2023/04/30 00:10:19;;;;;;;12.20;11.00;;;;;20.30;101157.00;;;;2065548;28;20222;-71
2023/04/30 00:11:19;;;;;;;11.10;9.93;;;;;20.30;101166.00;;;;2067513;28;20206;-71
2023/04/30 00:12:20;;;;;;;11.00;9.90;;;;;20.30;101158.00;;;;2067728;28;20222;-71
2023/04/30 00:13:20;;;;;;;10.77;9.70;;;;;20.30;101165.00;;;;2069893;28;20209;-71
2023/04/30 00:14:20;;;;;;;10.90;9.90;;;;;20.30;101158.00;;;;2064323;28;20202;-71
2023/04/30 00:15:21;;;;;;;10.93;9.83;;;;;20.30;101159.00;;;;2064727;28;20964;-71
2023/04/30 00:16:21;;;;;;;10.33;9.33;;;;;20.30;101159.00;;;;2064529;28;20234;-71
2023/04/30 00:17:22;;;;;;;11.70;10.60;;;;;20.30;101152.00;;;;2059144;28;20210;-71
2023/04/30 00:18:22;;;;;;;11.00;9.90;;;;;20.30;101155.00;;;;2063106;28;20381;-71
2023/04/30 00:19:23;;;;;;;10.47;9.40;;;;;20.30;101162.00;;;;2069164;28;20452;-71
2023/04/30 00:20:23;;;;;;;12.40;10.00;;;;;20.30;101163.00;;;;2065611;28;20226;-71
2023/04/30 00:21:24;;;;;;;10.17;9.13;;;;;20.30;101158.00;;;;2064250;28;20218;-71
2023/04/30 00:22:24;;;;;;;10.03;8.80;;;;;20.30;101149.00;;;;2064762;28;20281;-71
2023/04/30 00:23:24;;;;;;;9.63;8.63;;;;;20.30;101165.00;;;;2068662;28;20241;-71
2023/04/30 00:24:25;;;;;;;11.30;10.13;;;;;20.30;101164.00;;;;2064166;28;20229;-71
2023/04/30 00:25:25;;;;;;;11.77;9.70;;;;;20.30;101161.00;;;;2063651;28;20246;-71
2023/04/30 00:26:26;;;;;;;10.10;9.10;;;;;20.30;101158.00;;;;2063733;28;20269;-71
2023/04/30 00:27:26;;;;;;;8.83;7.93;;;;;20.30;101174.00;;;;2064716;28;20218;-71
2023/04/30 00:28:29;;;;;;;9.40;8.50;;;;;20.30;101163.00;;;;2065148;28;20226;-71
2023/04/30 00:29:30;;;;;;;9.25;8.35;;;;;20.30;101159.00;;;;2064375;28;20750;-71
2023/04/30 00:30:30;;;;;;;9.57;8.67;;;;;20.30;101165.00;;;;2064757;28;20294;-71
2023/04/30 00:31:31;;;;;;;9.73;8.73;;;;;20.30;101173.00;;;;2064236;28;20206;-71
2023/04/30 00:32:31;;;;;;;10.33;9.33;;;;;20.30;101168.00;;;;2064366;28;20893;-71
2023/04/30 00:33:31;;;;;;;9.20;8.20;;;;;20.20;101172.00;;;;2055404;28;20208;-71
2023/04/30 00:34:32;;;;;;;8.60;7.77;;;;;20.30;101177.00;;;;2056822;28;20211;-71
2023/04/30 00:35:32;;;;;;;9.30;8.40;;;;;20.30;101172.00;;;;2065318;28;20211;-71
2023/04/30 00:36:32;;;;;;;9.73;8.83;;;;;20.20;101176.00;;;;2072521;28;20875;-71
2023/04/30 00:37:33;;;;;;;9.50;8.60;;;;;20.20;101177.00;;;;2068924;28;20497;-71
2023/04/30 00:38:33;;;;;;;8.60;7.70;;;;;20.20;101183.00;;;;2065466;28;20215;-71
2023/04/30 00:39:33;;;;;;;8.80;7.90;;;;;20.30;101172.00;;;;2064804;28;21549;-73
2023/04/30 00:40:34;;;;;;;9.40;8.50;;;;;20.30;101169.00;;;;2065520;28;20206;-72
2023/04/30 00:41:35;;;;;;;9.57;8.27;;;;;20.30;101176.00;;;;2070390;28;20202;-71
2023/04/30 00:42:35;;;;;;;8.80;7.90;;;;;20.30;101178.00;;;;2070516;28;20933;-71
2023/04/30 00:43:35;;;;;;;8.60;7.70;;;;;20.30;101178.00;;;;2066294;28;20233;-71
2023/04/30 00:44:36;;;;;;;8.43;7.60;;;;;20.20;101173.00;;;;2071750;28;20237;-71
2023/04/30 00:45:36;;;;;;;8.23;7.47;;;;;20.20;101174.00;;;;2067091;28;20218;-71
2023/04/30 00:46:36;;;;;;;8.00;7.20;;;;;20.20;101180.00;;;;2065520;28;20276;-71
2023/04/30 00:47:37;;;;;;;8.60;7.60;;;;;20.20;101164.00;;;;2059224;28;20248;-71
2023/04/30 00:48:37;;;;;;;8.70;7.90;;;;;20.20;101171.00;;;;2069721;28;20228;-71
2023/04/30 00:49:37;;;;;;;8.27;7.47;;;;;20.20;101169.00;;;;2061310;28;20211;-71
2023/04/30 00:50:38;;;;;;;8.67;7.77;;;;;20.30;101146.00;;;;2060033;28;20203;-71
2023/04/30 00:51:39;;;;;;;8.40;7.60;;;;;20.20;101169.00;;;;2055481;28;20266;-71
2023/04/30 00:52:40;;;;;;;7.88;6.95;;;;;20.20;101173.00;;;;2050610;28;20254;-71
2023/04/30 00:53:41;;;;;;;8.07;7.28;;;;;20.20;101168.00;;;;2061610;28;20614;-71
2023/04/30 00:54:41;;;;;;;7.77;6.97;;;;;20.20;101163.00;;;;2059512;28;20340;-71
2023/04/30 00:55:41;;;;;;;8.03;7.13;;;;;20.20;101169.00;;;;2071408;28;20254;-71
2023/04/30 00:56:42;;;;;;;7.13;6.40;;;;;20.20;101175.00;;;;2060263;28;20330;-71
2023/04/30 00:57:42;;;;;;;8.60;7.80;;;;;20.20;101173.00;;;;2063893;28;20240;-71
2023/04/30 00:58:42;;;;;;;7.27;6.53;;;;;20.20;101174.00;;;;2071534;28;20225;-71
2023/04/30 00:59:43;;;;;;;7.03;6.30;;;;;20.20;101173.00;;;;2057870;28;20216;-71
2023/04/30 01:00:45;;;;;;;7.90;7.10;;;;;20.20;101167.00;;;;2058299;28;20222;-71
2023/04/30 01:01:46;;;;;;;7.53;6.72;;;;;20.20;101170.00;;;;2058208;28;20230;-71
2023/04/30 01:02:46;;;;;;;8.57;7.67;;;;;20.20;101170.00;;;;2064939;28;20246;-71
2023/04/30 01:03:46;;;;;;;8.03;7.23;;;;;20.20;101160.00;;;;2068323;28;20221;-71
2023/04/30 01:04:47;;;;;;;7.70;6.90;;;;;20.20;101166.00;;;;2066367;28;20242;-71
2023/04/30 01:05:47;;;;;;;7.27;6.50;;;;;20.20;101163.00;;;;2066178;28;20210;-71
2023/04/30 01:06:47;;;;;;;6.80;6.13;;;;;20.20;101162.00;;;;2066538;28;20211;-71
2023/04/30 01:07:48;;;;;;;7.33;6.60;;;;;20.20;101162.00;;;;2057256;28;20293;-71
2023/04/30 01:08:48;;;;;;;8.40;7.50;;;;;20.20;101146.00;;;;2049252;28;20208;-71
2023/04/30 01:09:48;;;;;;;7.37;6.63;;;;;20.20;101166.00;;;;2058982;28;20211;-71
2023/04/30 01:11:16;;;;;;;6.87;6.27;;;;;20.20;101162.00;;;;2070542;28;20225;-71
2023/04/30 01:12:22;;;;;;;7.20;6.50;;;;;20.20;101165.00;;;;2058213;28;20816;-71
2023/04/30 01:13:30;;;;;;;7.25;6.55;;;;;20.20;101146.00;;;;2057322;28;20275;-71
2023/04/30 01:14:38;;;;;;;6.00;5.50;;;;;20.20;101146.00;;;;2057975;28;20763;-71
2023/04/30 01:15:46;;;;;;;6.90;6.20;;;;;20.20;101162.00;;;;2062252;28;20349;-71
2023/04/30 01:16:50;;;;;;;6.97;6.30;;;;;20.20;101159.00;;;;2053230;28;20260;-71
2023/04/30 01:18:12;;;;;;;7.15;6.22;;;;;20.10;101143.00;;;;2063466;28;20294;-71
2023/04/30 01:19:34;;;;;;;8.20;6.90;;;;;20.10;101161.00;;;;2052535;28;20730;-71
2023/04/30 01:20:34;;;;;;;6.65;6.00;;;;;20.20;101161.00;;;;2053176;28;20218;-71
2023/04/30 01:21:35;;;;;;;8.33;6.77;;;;;20.10;101170.00;;;;2060760;28;20204;-71
2023/04/30 01:22:44;;;;;;;7.50;6.80;;;;;20.10;101166.00;;;;2062273;28;20211;-71
2023/04/30 01:23:57;;;;;;;6.18;5.57;;;;;20.20;101167.00;;;;2043370;28;20224;-71
2023/04/30 01:25:20;;;;;;;5.45;4.95;;;;;20.10;101164.00;;;;2060881;28;20243;-71
2023/04/30 01:26:57;;;;;;;5.85;5.30;;;;;20.10;101162.00;;;;2056507;28;20215;-71
2023/04/30 01:28:16;;;;;;;6.05;5.45;;;;;20.10;101162.00;;;;2065688;28;20222;-71
2023/04/30 01:29:16;;;;;;;6.13;5.53;;;;;20.10;101152.00;;;;2064923;28;20207;-71
2023/04/30 01:30:17;;;;;;;6.13;5.53;;;;;20.10;101161.00;;;;2058900;28;20347;-71
2023/04/30 01:31:18;;;;;;;6.27;5.67;;;;;20.10;101157.00;;;;2054814;28;20290;-71
2023/04/30 01:32:18;;;;;;;6.70;6.10;;;;;20.10;101164.00;;;;2056905;28;20270;-70
2023/04/30 01:33:18;;;;;;;6.10;5.50;;;;;20.10;101162.00;;;;2056525;28;20319;-71
2023/04/30 01:34:19;;;;;;;6.30;5.70;;;;;20.10;101158.00;;;;2065333;28;20671;-71
2023/04/30 01:35:19;;;;;;;6.67;6.00;;;;;20.10;101159.00;;;;2067395;28;20214;-71
2023/04/30 01:36:33;;;;;;;6.20;5.60;;;;;20.10;101136.00;;;;2059183;28;20219;-71
2023/04/30 01:37:40;;;;;;;5.53;4.93;;;;;20.10;101160.00;;;;2054983;28;20432;-71
2023/04/30 01:38:58;;;;;;;5.93;5.28;;;;;20.10;101162.00;;;;2053709;28;20219;-71
2023/04/30 01:40:16;;;;;;;6.05;5.45;;;;;20.10;101157.00;;;;2064370;28;20643;-71
2023/04/30 01:41:24;;;;;;;5.80;5.30;;;;;20.10;101162.00;;;;2058699;28;20220;-71
2023/04/30 01:42:40;;;;;;;6.38;5.72;;;;;20.10;101154.00;;;;2055220;28;20222;-71
2023/04/30 01:44:06;;;;;;;5.40;4.90;;;;;20.10;101161.00;;;;2064233;28;20219;-71
2023/04/30 01:45:21;;;;;;;5.88;5.28;;;;;20.10;101136.00;;;;2035199;29;20205;-71
2023/04/30 01:46:26;;;;;;;6.10;5.53;;;;;20.10;101155.00;;;;2064718;28;20218;-71
2023/04/30 01:47:47;;;;;;;5.90;5.30;;;;;20.10;101161.00;;;;2058879;28;20834;-71
2023/04/30 01:48:53;;;;;;;6.10;5.50;;;;;20.10;101160.00;;;;2061254;28;20276;-71
2023/04/30 01:50:00;;;;;;;5.35;4.85;;;;;20.10;101156.00;;;;2063937;28;20207;-71
2023/04/30 01:51:19;;;;;;;5.60;5.10;;;;;20.10;101147.00;;;;2066542;28;20603;-71
2023/04/30 01:52:36;;;;;;;5.80;5.20;;;;;20.10;101127.00;;;;2064555;28;20211;-71
2023/04/30 01:53:43;;;;;;;4.93;4.53;;;;;20.10;101157.00;;;;2070809;28;20206;-72
2023/04/30 01:54:46;;;;;;;4.95;4.45;;;;;20.10;101158.00;;;;2064706;28;20691;-71
2023/04/30 01:55:51;;;;;;;5.20;4.70;;;;;20.10;101158.00;;;;2058380;28;20215;-70
2023/04/30 01:57:03;;;;;;;5.35;4.85;;;;;20.10;101163.00;;;;2057822;28;20216;-71
2023/04/30 01:58:09;;;;;;;5.30;4.80;;;;;20.10;101153.00;;;;2057073;28;20621;-70
2023/04/30 01:59:09;;;;;;;5.00;4.60;;;;;20.10;101145.00;;;;2057478;28;20223;-71
2023/04/30 02:00:10;;;;;;;5.97;5.30;;;;;20.10;101160.00;;;;2064600;28;20225;-71
2023/04/30 02:01:31;;;;;;;5.78;5.05;;;;;20.10;101159.00;;;;2062254;28;20263;-71
2023/04/30 02:02:31;;;;;;;5.75;5.15;;;;;20.10;101168.00;;;;2060257;28;20606;-71
2023/04/30 02:03:32;;;;;;;5.00;4.60;;;;;20.10;101164.00;;;;2061450;28;20294;-71
2023/04/30 02:04:32;;;;;;;5.83;5.00;;;;;20.10;101164.00;;;;2061452;28;20230;-71
2023/04/30 02:05:33;;;;;;;5.10;4.70;;;;;20.10;101164.00;;;;2060911;28;20219;-71
2023/04/30 02:06:33;;;;;;;5.40;4.90;;;;;20.10;101164.00;;;;2072281;28;20241;-71
2023/04/30 02:07:39;;;;;;;5.63;5.13;;;;;20.00;101163.00;;;;2064549;28;20225;-71
2023/04/30 02:08:39;;;;;;;5.50;4.82;;;;;20.00;101158.00;;;;2056670;28;20235;-71
2023/04/30 02:09:40;;;;;;;5.10;4.70;;;;;20.00;101162.00;;;;2057195;28;20254;-71
2023/04/30 02:10:40;;;;;;;4.80;4.40;;;;;20.00;101164.00;;;;2070391;28;20234;-71
2023/04/30 02:11:41;;;;;;;4.80;4.30;;;;;20.00;101164.00;;;;2070694;28;20218;-71
2023/04/30 02:12:41;;;;;;;5.33;4.83;;;;;20.10;101161.00;;;;2065210;28;20592;-71
2023/04/30 02:13:41;;;;;;;5.27;4.80;;;;;20.10;101154.00;;;;2071569;28;20264;-71
2023/04/30 02:14:42;;;;;;;4.90;4.40;;;;;20.00;101166.00;;;;2069316;28;20254;-71
2023/04/30 02:15:42;;;;;;;5.10;4.60;;;;;20.00;101163.00;;;;2073667;28;20209;-71
2023/04/30 02:16:42;;;;;;;4.83;4.40;;;;;20.00;101155.00;;;;2069002;28;20210;-71
2023/04/30 02:17:43;;;;;;;5.20;4.70;;;;;20.00;101166.00;;;;2073606;28;20221;-71
2023/04/30 02:18:44;;;;;;;5.47;4.97;;;;;20.00;101164.00;;;;2071022;28;20210;-71
2023/04/30 02:19:44;;;;;;;4.97;4.22;;;;;20.00;101155.00;;;;2066043;28;20654;-71
2023/04/30 02:20:45;;;;;;;5.30;4.80;;;;;20.00;101159.00;;;;2065820;28;20211;-71
2023/04/30 02:21:45;;;;;;;5.13;4.63;;;;;20.00;101164.00;;;;2066233;28;20691;-71
2023/04/30 02:22:45;;;;;;;4.97;4.47;;;;;20.00;101164.00;;;;2062332;28;20243;-71
2023/04/30 02:23:46;;;;;;;5.00;4.50;;;;;20.00;101171.00;;;;2062168;28;20223;-71
2023/04/30 02:24:46;;;;;;;5.00;4.50;;;;;20.00;101172.00;;;;2067362;28;20214;-71
2023/04/30 02:25:46;;;;;;;5.17;4.70;;;;;20.00;101172.00;;;;2071412;28;20206;-71
2023/04/30 02:26:47;;;;;;;4.93;4.40;;;;;20.00;101170.00;;;;2065651;28;20214;-71
2023/04/30 02:27:49;;;;;;;5.37;4.90;;;;;20.00;101174.00;;;;2065348;28;20218;-71
2023/04/30 02:28:49;;;;;;;5.00;4.50;;;;;20.00;101179.00;;;;2065739;28;20270;-71
2023/04/30 02:29:50;;;;;;;4.83;4.43;;;;;20.00;101171.00;;;;2064435;28;20207;-71
2023/04/30 02:30:50;;;;;;;6.40;4.17;;;;;20.00;101167.00;;;;2065764;28;20211;-71
2023/04/30 02:31:50;;;;;;;4.43;4.03;;;;;20.00;101175.00;;;;2067512;28;20218;-71
2023/04/30 02:32:50;;;;;;;4.97;4.50;;;;;20.00;101169.00;;;;2065450;28;20227;-71
2023/04/30 02:33:51;;;;;;;4.20;3.90;;;;;20.00;101164.00;;;;2056462;28;20226;-70
2023/04/30 02:34:51;;;;;;;5.77;4.73;;;;;20.00;101177.00;;;;2062869;28;20218;-71
2023/04/30 02:35:53;;;;;;;4.80;4.30;;;;;20.00;101171.00;;;;2067326;28;20278;-71
2023/04/30 02:36:54;;;;;;;5.15;4.68;;;;;20.00;101176.00;;;;2065345;28;20237;-71
2023/04/30 02:37:54;;;;;;;3.87;3.53;;;;;20.00;101164.00;;;;2066059;28;20329;-71
2023/04/30 02:38:54;;;;;;;4.33;3.93;;;;;20.00;101164.00;;;;2071245;28;20577;-71
2023/04/30 02:39:55;;;;;;;5.23;4.73;;;;;20.00;101170.00;;;;2072378;28;20788;-71
2023/04/30 02:40:56;;;;;;;4.90;4.50;;;;;20.00;101171.00;;;;2064962;28;20242;-71
2023/04/30 02:41:56;;;;;;;6.33;4.27;;;;;20.00;101168.00;;;;2063889;28;20225;-71
2023/04/30 02:42:56;;;;;;;5.17;4.67;;;;;20.00;101164.00;;;;2058724;28;20216;-70
2023/04/30 02:43:57;;;;;;;5.17;4.40;;;;;20.00;101178.00;;;;2064409;28;20215;-71
2023/04/30 02:44:58;;;;;;;4.60;4.20;;;;;20.00;101166.00;;;;2065485;28;20269;-71
2023/04/30 02:45:58;;;;;;;4.60;4.17;;;;;20.00;101169.00;;;;2065200;28;20219;-71
2023/04/30 02:46:59;;;;;;;4.40;3.90;;;;;20.00;101167.00;;;;2071904;28;20476;-70
2023/04/30 02:47:59;;;;;;;4.60;4.20;;;;;20.00;101163.00;;;;2062865;28;20214;-71
2023/04/30 02:49:00;;;;;;;4.50;4.10;;;;;20.00;101170.00;;;;2060413;28;20215;-71
2023/04/30 02:50:00;;;;;;;3.90;3.60;;;;;19.90;101170.00;;;;2065110;28;20604;-71
2023/04/30 02:51:00;;;;;;;4.63;4.23;;;;;20.00;101178.00;;;;2065739;28;20241;-71
2023/04/30 02:52:01;;;;;;;4.97;4.33;;;;;20.00;101163.00;;;;2065193;28;20250;-71
2023/04/30 02:53:01;;;;;;;5.13;4.63;;;;;20.00;101171.00;;;;2073159;28;20210;-71
2023/04/30 02:54:01;;;;;;;5.10;4.60;;;;;20.00;101175.00;;;;2065945;28;20215;-71
2023/04/30 02:55:02;;;;;;;5.20;4.70;;;;;20.00;101166.00;;;;2065658;28;20635;-71
2023/04/30 02:56:03;;;;;;;4.88;4.30;;;;;19.90;101166.00;;;;2068437;28;20225;-71
2023/04/30 02:57:03;;;;;;;4.80;4.17;;;;;19.90;101169.00;;;;2067218;28;20219;-70
2023/04/30 02:58:04;;;;;;;4.50;4.10;;;;;19.90;101169.00;;;;2064502;28;20250;-71
2023/04/30 02:59:04;;;;;;;4.63;4.23;;;;;20.00;101164.00;;;;2057705;28;20242;-71
2023/04/30 03:00:06;;;;;;;4.17;3.77;;;;;20.00;101172.00;;;;2064852;28;20229;-71
2023/04/30 03:01:06;;;;;;;4.90;4.43;;;;;19.90;101166.00;;;;2072998;28;20659;-71
2023/04/30 03:02:06;;;;;;;5.43;4.93;;;;;19.90;101158.00;;;;2065502;28;20235;-71
2023/04/30 03:03:06;;;;;;;4.93;4.50;;;;;19.90;101165.00;;;;2065556;28;20600;-71
2023/04/30 03:04:07;;;;;;;4.60;4.20;;;;;19.90;101161.00;;;;2057611;28;20683;-70
2023/04/30 03:05:07;;;;;;;5.30;4.80;;;;;19.90;101161.00;;;;2065562;28;20698;-71
2023/04/30 03:06:08;;;;;;;4.40;4.00;;;;;19.90;101165.00;;;;2073817;28;20731;-71
2023/04/30 03:07:08;;;;;;;4.23;3.83;;;;;19.90;101159.00;;;;2065323;28;20736;-71
2023/04/30 03:08:08;;;;;;;4.73;4.23;;;;;19.90;101159.00;;;;2066078;28;20242;-71
2023/04/30 03:09:08;;;;;;;4.13;3.73;;;;;19.90;101165.00;;;;2065071;28;20698;-71
2023/04/30 03:10:09;;;;;;;5.27;4.77;;;;;19.90;101159.00;;;;2069264;28;20624;-71
2023/04/30 03:11:09;;;;;;;4.80;4.40;;;;;19.90;101155.00;;;;2073272;28;20495;-71
2023/04/30 03:12:10;;;;;;;6.20;4.50;;;;;19.90;101157.00;;;;2063509;28;20199;-71
2023/04/30 03:13:10;;;;;;;4.40;4.00;;;;;19.90;101153.00;;;;2065776;28;20202;-71
2023/04/30 03:14:11;;;;;;;4.73;4.00;;;;;19.90;101153.00;;;;2065360;28;20223;-71
2023/04/30 03:15:11;;;;;;;4.60;4.20;;;;;19.90;101148.00;;;;2066006;28;20683;-71
2023/04/30 03:16:11;;;;;;;6.60;4.40;;;;;19.90;101161.00;;;;2073529;28;20697;-71
2023/04/30 03:17:12;;;;;;;4.27;3.87;;;;;19.90;101156.00;;;;2067456;28;20667;-71
2023/04/30 03:18:12;;;;;;;4.60;4.20;;;;;19.90;101156.00;;;;2066625;28;20215;-71
2023/04/30 03:19:12;;;;;;;4.50;4.10;;;;;19.90;101159.00;;;;2071285;28;20202;-71
2023/04/30 03:20:13;;;;;;;5.13;4.63;;;;;19.90;101157.00;;;;2065712;28;20218;-71
2023/04/30 03:21:13;;;;;;;4.67;4.27;;;;;19.90;101165.00;;;;2064687;28;20230;-71
2023/04/30 03:22:14;;;;;;;5.83;4.40;;;;;19.90;101162.00;;;;2058090;28;20231;-70
2023/04/30 03:23:14;;;;;;;4.07;3.60;;;;;19.90;101155.00;;;;2065688;28;20215;-71
2023/04/30 03:24:15;;;;;;;4.90;4.40;;;;;19.90;101164.00;;;;2065676;28;20459;-71
2023/04/30 03:25:15;;;;;;;5.03;4.53;;;;;19.90;101152.00;;;;2063699;28;20237;-71
2023/04/30 03:26:16;;;;;;;5.27;4.00;;;;;19.90;101157.00;;;;2065786;28;20686;-71
2023/04/30 03:27:16;;;;;;;4.30;3.90;;;;;19.90;101160.00;;;;2067183;28;20828;-71
2023/04/30 03:28:16;;;;;;;4.40;3.60;;;;;19.80;101154.00;;;;2067527;28;20215;-71
2023/04/30 03:29:17;;;;;;;5.00;4.50;;;;;19.90;101156.00;;;;2060111;28;20291;-71
2023/04/30 03:30:17;;;;;;;4.13;3.73;;;;;19.90;101160.00;;;;2066280;28;20199;-71
2023/04/30 03:31:17;;;;;;;4.50;4.10;;;;;19.90;101155.00;;;;2068368;28;20202;-71
2023/04/30 03:32:18;;;;;;;4.50;3.80;;;;;19.90;101157.00;;;;2065526;28;20207;-71
2023/04/30 03:33:18;;;;;;;4.03;3.63;;;;;19.90;101153.00;;;;2064426;28;20211;-70
2023/04/30 03:34:18;;;;;;;5.30;4.33;;;;;19.90;101157.00;;;;2065038;28;20538;-71
2023/04/30 03:35:19;;;;;;;5.10;3.73;;;;;19.80;101161.00;;;;2067220;28;20717;-71
2023/04/30 03:36:19;;;;;;;4.47;4.07;;;;;19.80;101160.00;;;;2060757;28;20711;-71
2023/04/30 03:37:20;;;;;;;5.00;4.40;;;;;19.90;101156.00;;;;2062226;28;20227;-71
2023/04/30 03:38:20;;;;;;;4.70;4.00;;;;;19.80;101156.00;;;;2060367;28;20261;-71
2023/04/30 03:39:20;;;;;;;4.60;4.10;;;;;19.90;101159.00;;;;2065426;28;20206;-71
2023/04/30 03:40:21;;;;;;;4.60;4.20;;;;;19.80;101155.00;;;;2063268;28;20211;-71
2023/04/30 03:41:23;;;;;;;4.50;4.10;;;;;19.80;101157.00;;;;2064855;28;20222;-71
2023/04/30 03:42:23;;;;;;;4.65;3.95;;;;;19.80;101154.00;;;;2058919;28;20294;-71
2023/04/30 03:43:23;;;;;;;4.83;4.43;;;;;19.80;101156.00;;;;2057792;28;20630;-71
2023/04/30 03:44:24;;;;;;;3.90;3.50;;;;;19.80;101156.00;;;;2065507;28;20261;-71
2023/04/30 03:45:24;;;;;;;5.30;4.40;;;;;19.90;101164.00;;;;2065702;28;20237;-71
2023/04/30 03:46:25;;;;;;;4.60;4.20;;;;;19.80;101165.00;;;;2065242;28;20610;-71
2023/04/30 03:47:25;;;;;;;4.80;4.17;;;;;19.90;101159.00;;;;2061721;28;20207;-71
2023/04/30 03:48:26;;;;;;;4.63;4.17;;;;;19.80;101167.00;;;;2056450;28;20753;-71
2023/04/30 03:49:26;;;;;;;4.57;4.17;;;;;19.90;101162.00;;;;2065081;28;20671;-71
2023/04/30 03:50:26;;;;;;;4.40;4.00;;;;;19.80;101168.00;;;;2065542;28;20234;-71
2023/04/30 03:51:27;;;;;;;4.40;4.00;;;;;19.80;101165.00;;;;2068105;28;20224;-71
2023/04/30 03:52:27;;;;;;;4.60;4.20;;;;;19.90;101167.00;;;;2061839;28;20211;-71
2023/04/30 03:53:27;;;;;;;4.87;4.47;;;;;19.80;101158.00;;;;2064173;28;20884;-71
2023/04/30 03:54:28;;;;;;;5.30;4.17;;;;;19.80;101161.00;;;;2059971;28;20582;-70
2023/04/30 03:55:28;;;;;;;4.27;3.87;;;;;19.80;101154.00;;;;2072999;28;20202;-71
2023/04/30 03:56:28;;;;;;;4.17;3.80;;;;;19.80;101161.00;;;;2073349;28;20222;-70
2023/04/30 03:57:29;;;;;;;4.00;3.70;;;;;19.80;101164.00;;;;2065471;28;20218;-71
2023/04/30 03:58:30;;;;;;;5.97;4.03;;;;;19.80;101163.00;;;;2055122;28;20212;-70
2023/04/30 03:59:30;;;;;;;4.53;4.13;;;;;19.80;101164.00;;;;2048709;28;20220;-71
2023/04/30 04:00:31;;;;;;;4.43;4.03;;;;;19.80;101167.00;;;;2063427;28;20345;-71
2023/04/30 04:01:31;;;;;;;4.60;4.20;;;;;19.80;101160.00;;;;2065233;28;20450;-70
2023/04/30 04:02:32;;;;;;;4.13;3.73;;;;;19.80;101165.00;;;;2061438;28;20237;-71
2023/04/30 04:03:33;;;;;;;4.27;3.93;;;;;19.80;101166.00;;;;2060156;28;20221;-70
2023/04/30 04:04:33;;;;;;;4.07;3.70;;;;;19.80;101165.00;;;;2068652;28;20213;-71
2023/04/30 04:05:34;;;;;;;5.10;4.67;;;;;19.80;101174.00;;;;2067426;28;20233;-71
2023/04/30 04:06:34;;;;;;;4.37;3.97;;;;;19.90;101166.00;;;;2067986;28;20237;-70
2023/04/30 04:07:35;;;;;;;4.43;4.03;;;;;19.80;101167.00;;;;2066865;28;20244;-71
2023/04/30 04:08:36;;;;;;;4.40;4.00;;;;;19.80;101176.00;;;;2069567;28;20220;-71
2023/04/30 04:09:36;;;;;;;4.72;4.10;;;;;19.80;101172.00;;;;2069261;28;20215;-71
2023/04/30 04:10:37;;;;;;;4.30;3.90;;;;;19.80;101171.00;;;;2064046;28;20678;-71
2023/04/30 04:11:38;;;;;;;4.07;3.72;;;;;19.80;101173.00;;;;2062010;28;20291;-71
2023/04/30 04:12:38;;;;;;;4.47;4.07;;;;;19.80;101167.00;;;;2056393;28;20219;-71
2023/04/30 04:13:38;;;;;;;4.70;3.47;;;;;19.80;101166.00;;;;2067213;28;20219;-71
2023/04/30 04:14:39;;;;;;;4.17;3.77;;;;;19.80;101167.00;;;;2067151;28;20268;-70
2023/04/30 04:15:39;;;;;;;4.90;4.40;;;;;19.80;101174.00;;;;2065846;28;20727;-71
2023/04/30 04:16:39;;;;;;;4.43;4.03;;;;;19.80;101168.00;;;;2067149;28;20579;-70
2023/04/30 04:17:40;;;;;;;3.93;3.63;;;;;19.80;101171.00;;;;2064335;28;20215;-71
2023/04/30 04:18:40;;;;;;;4.47;3.70;;;;;19.80;101173.00;;;;2067582;28;20221;-71
2023/04/30 04:19:40;;;;;;;4.30;3.90;;;;;19.80;101167.00;;;;2070382;28;20247;-71
2023/04/30 04:20:41;;;;;;;3.80;3.50;;;;;19.80;101171.00;;;;2073268;28;20214;-71
2023/04/30 04:21:41;;;;;;;4.90;4.40;;;;;19.80;101163.00;;;;2066841;28;20218;-71
2023/04/30 04:22:41;;;;;;;3.97;3.67;;;;;19.80;101169.00;;;;2065189;28;20223;-72
2023/04/30 04:23:41;;;;;;;4.00;3.60;;;;;19.80;101171.00;;;;2072868;28;20210;-71
2023/04/30 04:24:42;;;;;;;4.40;4.00;;;;;19.80;101166.00;;;;2065400;28;20211;-71
2023/04/30 04:25:43;;;;;;;4.23;3.83;;;;;19.80;101169.00;;;;2064767;28;20233;-71
2023/04/30 04:26:43;;;;;;;4.10;3.70;;;;;19.80;101162.00;;;;2064642;28;20203;-71
2023/04/30 04:27:43;;;;;;;3.87;3.57;;;;;19.80;101173.00;;;;2064711;28;20478;-71
2023/04/30 04:28:44;;;;;;;4.37;3.93;;;;;19.80;101165.00;;;;2064529;28;20215;-71
2023/04/30 04:29:45;;;;;;;3.77;3.40;;;;;19.80;101176.00;;;;2061163;28;20210;-71
2023/04/30 04:30:45;;;;;;;5.43;4.00;;;;;19.80;101175.00;;;;2062266;28;20751;-71
2023/04/30 04:31:47;;;;;;;4.80;4.30;;;;;19.80;101174.00;;;;2062339;28;20325;-71
2023/04/30 04:32:50;;;;;;;4.50;4.10;;;;;19.80;101177.00;;;;2069659;28;20240;-70
2023/04/30 04:33:56;;;;;;;4.13;3.72;;;;;19.80;101175.00;;;;2065211;28;20219;-71
2023/04/30 04:34:57;;;;;;;6.00;4.32;;;;;19.70;101174.00;;;;2064903;28;20222;-71
2023/04/30 04:35:58;;;;;;;3.90;3.47;;;;;19.80;101177.00;;;;2061272;28;20829;-71
2023/04/30 04:36:58;;;;;;;4.73;4.33;;;;;19.80;101173.00;;;;2064873;28;20241;-71
2023/04/30 04:37:59;;;;;;;4.50;4.10;;;;;19.80;101179.00;;;;2064457;28;20635;-71
2023/04/30 04:39:02;;;;;;;3.70;3.40;;;;;19.80;101175.00;;;;2065113;28;20198;-71
2023/04/30 04:40:04;;;;;;;3.65;3.30;;;;;19.70;101180.00;;;;2056535;28;20219;-71
2023/04/30 04:41:04;;;;;;;3.60;3.30;;;;;19.70;101177.00;;;;2057219;28;20223;-71
2023/04/30 04:42:04;;;;;;;4.07;3.67;;;;;19.70;101177.00;;;;2064354;28;20211;-71
2023/04/30 04:43:05;;;;;;;4.47;3.77;;;;;19.70;101173.00;;;;2057735;28;20302;-71
2023/04/30 04:44:05;;;;;;;3.87;3.40;;;;;19.80;101181.00;;;;2064678;28;20211;-71
2023/04/30 04:45:06;;;;;;;6.00;4.13;;;;;19.80;101181.00;;;;2064439;28;20219;-71
2023/04/30 04:46:07;;;;;;;3.85;3.55;;;;;19.80;101180.00;;;;2071422;28;20214;-71
2023/04/30 04:47:09;;;;;;;4.82;4.32;;;;;19.80;101180.00;;;;2066610;28;20219;-71
2023/04/30 04:48:09;;;;;;;4.70;4.15;;;;;19.80;101172.00;;;;2063940;28;20226;-71
2023/04/30 04:49:09;;;;;;;4.33;3.93;;;;;19.80;101177.00;;;;2064163;28;20214;-71
2023/04/30 04:50:10;;;;;;;4.80;3.97;;;;;19.70;101174.00;;;;2064412;28;20264;-70
2023/04/30 04:51:10;;;;;;;4.20;3.80;;;;;19.70;101179.00;;;;2064910;28;20211;-71
2023/04/30 04:52:10;;;;;;;4.00;3.70;;;;;19.70;101186.00;;;;2064195;28;20273;-70
2023/04/30 04:53:11;;;;;;;4.10;3.70;;;;;19.70;101177.00;;;;2064702;28;20226;-71
2023/04/30 04:54:11;;;;;;;4.67;4.27;;;;;19.70;101183.00;;;;2071266;28;20214;-70
2023/04/30 04:55:12;;;;;;;4.17;3.77;;;;;19.70;101185.00;;;;2063345;28;20237;-70
2023/04/30 04:56:12;;;;;;;4.20;3.80;;;;;19.70;101191.00;;;;2072101;28;20253;-71
2023/04/30 04:57:13;;;;;;;5.90;3.90;;;;;19.80;101193.00;;;;2070227;28;20219;-68
2023/04/30 04:58:13;;;;;;;5.00;3.70;;;;;19.80;101194.00;;;;2066504;28;20501;-72
2023/04/30 04:59:14;;;;;;;3.47;3.17;;;;;19.80;101197.00;;;;2067050;28;20728;-72
2023/04/30 05:00:15;;;;;;;4.47;3.57;;;;;19.80;101192.00;;;;2068276;28;20215;-70
2023/04/30 05:01:16;;;;;;;3.95;3.55;;;;;19.80;101196.00;;;;2059825;28;20211;-70
2023/04/30 05:02:16;;;;;;;4.60;4.20;;;;;19.80;101192.00;;;;2066667;28;20216;-69
2023/04/30 05:03:19;;;;;;;3.70;3.40;;;;;19.80;101180.00;;;;2075005;28;20211;-70
2023/04/30 05:04:19;;;;;;;4.63;3.22;;;;;19.90;101185.00;;;;2071701;28;20240;-69
2023/04/30 05:05:20;;;;;;;3.23;2.93;;;;;19.90;101180.00;;;;2064891;28;20206;-68